Time;durP1;ratioP1;P1;durP2;ratioP2;P2;SDS_P1;SDS_P2;PMS_P1;PMS_P2;Temp;Humidity;BMP_temperature;BMP_pressure;BME280_temperature;BME280_humidity;BME280_pressure;Samples;Min_cycle;Max_cycle;Signal;HPM_P1;HPM_P2
2021/04/04 00:01:20;;;;;;;16.27;6.68;;;1.90;99.90;;;;;;5033993;28;20067;-71
2021/04/04 00:03:47;;;;;;;12.63;6.45;;;1.90;99.90;;;;;;5033241;28;20045;-71
2021/04/04 00:06:12;;;;;;;11.98;6.03;;;1.80;99.90;;;;;;5033994;28;20022;-72
2021/04/04 00:08:38;;;;;;;13.68;6.35;;;1.80;99.90;;;;;;5034289;28;20017;-72
2021/04/04 00:11:06;;;;;;;9.10;6.50;;;1.80;99.90;;;;;;5034227;28;20053;-71
2021/04/04 00:13:33;;;;;;;15.80;7.10;;;1.60;99.90;;;;;;5033322;28;20029;-72
2021/04/04 00:15:59;;;;;;;15.18;7.22;;;1.60;99.90;;;;;;5034021;28;20029;-71
2021/04/04 00:18:25;;;;;;;15.98;6.70;;;1.60;99.90;;;;;;5033736;28;20033;-71
2021/04/04 00:20:51;;;;;;;16.92;6.55;;;1.50;99.90;;;;;;5033780;28;20033;-71
2021/04/04 00:23:16;;;;;;;11.73;5.90;;;1.50;99.90;;;;;;5033328;28;20025;-72
2021/04/04 00:25:42;;;;;;;13.75;6.53;;;1.60;99.90;;;;;;5034231;28;20051;-71
2021/04/04 00:28:08;;;;;;;10.18;6.30;;;1.80;99.90;;;;;;5033736;28;20144;-71
2021/04/04 00:30:33;;;;;;;14.70;6.93;;;1.60;99.90;;;;;;5033333;28;20464;-71
2021/04/04 00:32:59;;;;;;;12.93;6.53;;;1.60;99.90;;;;;;5031515;28;20041;-71
2021/04/04 00:35:25;;;;;;;14.65;6.50;;;1.60;99.90;;;;;;5032255;28;20128;-71
2021/04/04 00:37:53;;;;;;;11.57;6.18;;;1.60;99.90;;;;;;5033561;28;20025;-71
2021/04/04 00:40:28;;;;;;;12.10;6.93;;;1.60;99.90;;;;;;5033350;28;20028;-71
2021/04/04 00:42:54;;;;;;;14.43;6.55;;;1.50;99.90;;;;;;5032913;28;20033;-71
2021/04/04 00:45:22;;;;;;;14.75;6.03;;;1.50;99.90;;;;;;5033248;28;20132;-71
2021/04/04 00:47:48;;;;;;;10.25;6.28;;;1.40;99.90;;;;;;5033223;28;20029;-71
2021/04/04 00:50:16;;;;;;;13.07;6.80;;;1.40;99.90;;;;;;5033452;28;20025;-71
2021/04/04 00:52:43;;;;;;;14.45;7.03;;;1.50;99.90;;;;;;5037826;28;20081;-71
2021/04/04 00:55:10;;;;;;;13.90;6.43;;;1.40;99.90;;;;;;5044369;28;20021;-72
2021/04/04 00:57:36;;;;;;;11.23;7.60;;;1.40;99.90;;;;;;5046747;28;20037;-71
2021/04/04 01:00:05;;;;;;;12.63;7.03;;;1.40;99.90;;;;;;5044216;28;20395;-71
2021/04/04 01:02:31;;;;;;;10.85;6.53;;;1.40;99.90;;;;;;5034473;28;20049;-71
2021/04/04 01:04:59;;;;;;;11.68;6.63;;;1.30;99.90;;;;;;5030484;28;20159;-71
2021/04/04 01:07:25;;;;;;;11.77;6.43;;;1.30;99.90;;;;;;5032800;28;20024;-71
2021/04/04 01:09:50;;;;;;;11.45;6.85;;;1.30;99.90;;;;;;5032326;28;20034;-71
2021/04/04 01:12:28;;;;;;;12.73;7.53;;;1.30;99.90;;;;;;5032698;28;20137;-71
2021/04/04 01:15:06;;;;;;;12.95;7.00;;;1.20;99.90;;;;;;5032059;28;20025;-71
2021/04/04 01:17:33;;;;;;;11.57;6.63;;;1.20;99.90;;;;;;5032801;28;20056;-71
2021/04/04 01:20:23;;;;;;;12.63;6.97;;;1.10;99.90;;;;;;5032208;28;20032;-71
2021/04/04 01:22:57;;;;;;;12.38;6.75;;;1.00;99.90;;;;;;5031746;28;20021;-71
2021/04/04 01:25:38;;;;;;;11.40;6.35;;;1.10;99.90;;;;;;5032480;28;20029;-71
2021/04/04 01:28:21;;;;;;;13.38;7.10;;;1.00;99.90;;;;;;5032484;28;20028;-71
2021/04/04 01:30:50;;;;;;;10.80;7.32;;;1.10;99.90;;;;;;5032718;28;20674;-72
2021/04/04 01:33:18;;;;;;;15.98;7.32;;;1.10;99.90;;;;;;5032038;28;20100;-72
2021/04/04 01:35:50;;;;;;;15.65;9.30;;;1.10;99.90;;;;;;5032162;28;20025;-71
2021/04/04 01:38:20;;;;;;;12.57;7.07;;;1.10;99.90;;;;;;5032309;28;20024;-71
2021/04/04 01:40:49;;;;;;;13.18;7.90;;;1.10;99.90;;;;;;5032173;28;20049;-71
2021/04/04 01:43:16;;;;;;;14.30;7.00;;;1.00;99.90;;;;;;5031479;28;20075;-71
2021/04/04 01:45:44;;;;;;;15.25;7.15;;;0.90;99.90;;;;;;5032080;28;20072;-71
2021/04/04 01:48:12;;;;;;;13.27;7.53;;;0.90;99.90;;;;;;5031791;28;20025;-72
2021/04/04 01:50:40;;;;;;;14.68;7.30;;;0.90;99.90;;;;;;5031943;28;20022;-72
2021/04/04 01:53:07;;;;;;;14.25;7.55;;;0.80;99.90;;;;;;5031248;28;20785;-71
2021/04/04 01:55:33;;;;;;;13.93;7.05;;;0.80;99.90;;;;;;5031832;28;20474;-72
2021/04/04 01:58:00;;;;;;;15.57;7.20;;;0.80;99.90;;;;;;5032079;28;20036;-72
2021/04/04 02:00:28;;;;;;;12.35;7.00;;;0.80;99.90;;;;;;5031672;28;20087;-71
2021/04/04 02:02:54;;;;;;;13.68;7.60;;;0.70;99.90;;;;;;5030848;28;20079;-72
2021/04/04 02:05:22;;;;;;;13.10;6.63;;;0.80;99.90;;;;;;5031799;28;20025;-72
2021/04/04 02:07:50;;;;;;;11.52;6.40;;;0.80;99.90;;;;;;5031726;28;20018;-72
2021/04/04 02:10:23;;;;;;;11.25;6.80;;;0.80;99.90;;;;;;5031609;28;20032;-72
2021/04/04 02:12:52;;;;;;;10.60;6.20;;;0.80;99.90;;;;;;5030931;28;20026;-72
2021/04/04 02:15:20;;;;;;;18.90;7.45;;;0.80;99.90;;;;;;5031480;28;20029;-72
2021/04/04 02:17:47;;;;;;;11.15;6.50;;;0.80;99.90;;;;;;5031858;28;20033;-72
2021/04/04 02:20:16;;;;;;;16.38;6.82;;;0.70;99.90;;;;;;5031267;28;20036;-75
2021/04/04 02:22:43;;;;;;;16.23;7.50;;;0.70;99.90;;;;;;5030278;28;20029;-75
2021/04/04 02:25:10;;;;;;;13.65;7.13;;;0.60;99.90;;;;;;5031005;28;20021;-74
2021/04/04 02:27:39;;;;;;;14.50;7.63;;;0.60;99.90;;;;;;5031633;28;20029;-73
2021/04/04 02:30:06;;;;;;;13.45;7.07;;;0.60;99.90;;;;;;5031901;28;20030;-74
2021/04/04 02:32:36;;;;;;;12.05;7.10;;;0.70;99.90;;;;;;5032183;28;20418;-72
2021/04/04 02:35:03;;;;;;;10.57;6.88;;;0.70;99.90;;;;;;5032968;28;20033;-75
2021/04/04 02:37:29;;;;;;;11.77;7.40;;;0.60;99.90;;;;;;5038607;28;20120;-75
2021/04/04 02:40:02;;;;;;;13.57;7.57;;;0.60;99.90;;;;;;5042762;28;20100;-75
2021/04/04 02:42:29;;;;;;;13.70;7.53;;;0.60;99.90;;;;;;5039990;28;20025;-75
2021/04/04 02:44:59;;;;;;;11.32;6.78;;;0.50;99.90;;;;;;5038040;28;20509;-74
2021/04/04 02:47:34;;;;;;;12.43;7.25;;;0.50;99.90;;;;;;5039444;28;20351;-76
2021/04/04 02:50:01;;;;;;;14.95;7.40;;;0.40;99.90;;;;;;5038671;28;20029;-75
2021/04/04 02:52:27;;;;;;;11.75;6.50;;;0.50;99.90;;;;;;5040568;28;20036;-74
2021/04/04 02:54:55;;;;;;;15.48;7.47;;;0.40;99.90;;;;;;5040706;28;20025;-76
2021/04/04 02:57:27;;;;;;;10.82;6.43;;;0.50;99.90;;;;;;5040989;28;20108;-76
2021/04/04 02:59:56;;;;;;;14.70;6.97;;;0.50;99.90;;;;;;5040468;28;20029;-76
2021/04/04 03:02:23;;;;;;;12.93;7.03;;;0.40;99.90;;;;;;5038778;28;20013;-75
2021/04/04 03:04:51;;;;;;;11.00;7.10;;;0.40;99.90;;;;;;5038887;28;20045;-76
2021/04/04 03:07:19;;;;;;;12.52;7.05;;;0.30;99.90;;;;;;5039256;28;20021;-76
2021/04/04 03:09:50;;;;;;;24.05;7.80;;;0.20;99.90;;;;;;5039428;28;20021;-76
2021/04/04 03:12:16;;;;;;;16.83;8.38;;;0.30;99.90;;;;;;5042756;28;20098;-77
2021/04/04 03:14:46;;;;;;;13.50;7.47;;;0.20;99.90;;;;;;5041031;28;20024;-76
2021/04/04 03:17:13;;;;;;;12.57;7.90;;;0.20;99.90;;;;;;5035865;28;20108;-75
2021/04/04 03:19:41;;;;;;;11.75;6.90;;;0.20;99.90;;;;;;5033967;28;20108;-76
2021/04/04 03:22:08;;;;;;;16.50;8.23;;;0.30;99.90;;;;;;5046878;28;20379;-76
2021/04/04 03:24:35;;;;;;;14.10;7.93;;;0.30;99.90;;;;;;5045728;28;20032;-75
2021/04/04 03:27:01;;;;;;;14.02;7.63;;;0.30;99.90;;;;;;5038519;28;20028;-76
2021/04/04 03:29:29;;;;;;;14.68;8.40;;;0.30;99.90;;;;;;5044843;28;20014;-76
2021/04/04 03:31:59;;;;;;;22.05;9.25;;;0.20;99.90;;;;;;5040343;28;20043;-75
2021/04/04 03:34:26;;;;;;;19.48;8.77;;;0.20;99.90;;;;;;5045548;28;20051;-77
2021/04/04 03:36:53;;;;;;;14.63;7.60;;;0.30;99.90;;;;;;5044569;28;20021;-76
2021/04/04 03:39:20;;;;;;;15.50;8.45;;;0.20;99.90;;;;;;5044615;28;20024;-76
2021/04/04 03:41:48;;;;;;;15.57;8.18;;;0.20;99.90;;;;;;5041224;28;20022;-76
2021/04/04 03:44:18;;;;;;;17.10;8.18;;;0.20;99.90;;;;;;5039327;28;20021;-77
2021/04/04 03:46:46;;;;;;;16.58;8.20;;;0.20;99.90;;;;;;5044928;28;20178;-77
2021/04/04 03:49:12;;;;;;;16.90;8.52;;;0.20;99.90;;;;;;5045664;28;20021;-77
2021/04/04 03:51:39;;;;;;;13.77;8.10;;;0.20;99.90;;;;;;5040356;28;20072;-77
2021/04/04 03:54:08;;;;;;;15.18;8.40;;;0.10;99.90;;;;;;5039845;28;20092;-76
2021/04/04 03:56:36;;;;;;;15.02;7.70;;;0.00;99.90;;;;;;5045206;28;20048;-77
2021/04/04 03:59:05;;;;;;;11.45;7.93;;;0.00;99.90;;;;;;5047785;28;20503;-78
2021/04/04 04:01:33;;;;;;;18.23;9.20;;;0.00;99.90;;;;;;5050080;28;20233;-77
2021/04/04 04:04:00;;;;;;;13.82;8.30;;;-0.10;99.90;;;;;;5068643;28;20020;-76
2021/04/04 04:06:29;;;;;;;15.23;8.55;;;0.00;99.90;;;;;;5064912;28;20021;-75
2021/04/04 04:08:56;;;;;;;13.20;7.80;;;-0.10;99.90;;;;;;5065819;28;20013;-76
2021/04/04 04:11:23;;;;;;;19.10;8.13;;;-0.10;99.90;;;;;;5056274;28;20538;-76
2021/04/04 04:13:49;;;;;;;18.38;8.98;;;-0.10;99.90;;;;;;5069276;28;20032;-76
2021/04/04 04:16:16;;;;;;;13.63;8.27;;;-0.10;99.90;;;;;;5072091;28;20020;-75
2021/04/04 04:18:45;;;;;;;15.40;8.05;;;0.00;99.90;;;;;;5075398;28;20069;-74
2021/04/04 04:21:12;;;;;;;16.52;8.63;;;0.00;99.90;;;;;;5075303;28;20021;-71
2021/04/04 04:23:39;;;;;;;15.77;8.90;;;-0.20;99.90;;;;;;5067956;28;20013;-74
2021/04/04 04:26:09;;;;;;;16.55;8.38;;;-0.20;99.90;;;;;;5067784;28;20013;-72
2021/04/04 04:28:36;;;;;;;17.88;8.43;;;-0.20;99.90;;;;;;5065429;28;20028;-72
2021/04/04 04:31:05;;;;;;;14.73;8.40;;;-0.20;99.90;;;;;;5065818;28;20077;-72
2021/04/04 04:33:31;;;;;;;15.57;8.95;;;-0.20;99.90;;;;;;5042851;28;20060;-73
2021/04/04 04:35:57;;;;;;;21.38;8.95;;;-0.20;99.90;;;;;;5047947;28;20034;-72
2021/04/04 04:38:25;;;;;;;19.67;9.25;;;-0.30;99.90;;;;;;5050874;28;20037;-73
2021/04/04 04:40:54;;;;;;;13.82;8.35;;;-0.20;99.90;;;;;;5050637;28;20026;-71
2021/04/04 04:43:21;;;;;;;14.48;8.80;;;-0.20;99.90;;;;;;5077086;28;20031;-72
2021/04/04 04:45:47;;;;;;;13.48;8.48;;;-0.20;99.90;;;;;;5086294;28;20035;-73
2021/04/04 04:48:22;;;;;;;14.63;8.68;;;-0.20;99.90;;;;;;5087858;28;20141;-72
2021/04/04 04:50:48;;;;;;;14.25;8.20;;;-0.20;99.90;;;;;;5085513;28;20032;-72
2021/04/04 04:53:14;;;;;;;17.60;8.73;;;-0.20;99.90;;;;;;5084802;28;20035;-72
2021/04/04 04:55:42;;;;;;;16.55;8.68;;;-0.20;99.90;;;;;;5086560;28;20228;-71
2021/04/04 04:58:10;;;;;;;15.23;9.05;;;-0.30;99.90;;;;;;5086196;28;20036;-73
2021/04/04 05:00:36;;;;;;;17.20;8.45;;;-0.30;99.90;;;;;;5081273;28;20021;-72
2021/04/04 05:03:06;;;;;;;15.88;9.38;;;-0.30;99.90;;;;;;5041917;28;20083;-71
2021/04/04 05:05:33;;;;;;;18.42;8.95;;;-0.30;99.90;;;;;;5045697;28;20144;-73
2021/04/04 05:08:02;;;;;;;15.07;9.38;;;-0.30;99.90;;;;;;5045089;28;20116;-72
2021/04/04 05:10:28;;;;;;;17.27;8.77;;;-0.20;99.90;;;;;;5044723;28;20029;-73
2021/04/04 05:12:58;;;;;;;20.98;10.13;;;-0.20;99.90;;;;;;5044718;28;20034;-72
2021/04/04 05:15:26;;;;;;;18.85;8.98;;;-0.20;99.90;;;;;;5044609;28;20029;-73
2021/04/04 05:17:53;;;;;;;19.40;9.45;;;-0.20;99.90;;;;;;5042984;28;20494;-72
2021/04/04 05:20:20;;;;;;;16.85;8.82;;;-0.20;99.90;;;;;;5068172;28;20029;-71
2021/04/04 05:22:46;;;;;;;18.75;9.65;;;-0.20;99.90;;;;;;5072080;28;20098;-73
2021/04/04 05:25:13;;;;;;;20.13;9.45;;;-0.10;99.90;;;;;;5070849;28;20432;-72
2021/04/04 05:27:38;;;;;;;18.48;8.88;;;-0.10;99.90;;;;;;5071736;28;20017;-72
2021/04/04 05:30:10;;;;;;;17.65;10.43;;;0.00;99.90;;;;;;5071717;28;20105;-72
2021/04/04 05:32:43;;;;;;;16.98;9.27;;;0.00;99.90;;;;;;5035263;28;20045;-72
2021/04/04 05:35:16;;;;;;;16.38;9.60;;;0.10;99.90;;;;;;5031731;28;20033;-71
2021/04/04 05:37:44;;;;;;;16.08;8.43;;;0.10;99.90;;;;;;5031734;28;20487;-72
2021/04/04 05:40:20;;;;;;;14.82;8.80;;;0.00;99.90;;;;;;5032073;28;20040;-72
2021/04/04 05:42:55;;;;;;;17.73;9.02;;;0.10;99.90;;;;;;5031321;28;20075;-73
2021/04/04 05:45:41;;;;;;;17.23;8.93;;;0.10;99.90;;;;;;5031678;28;20024;-72
2021/04/04 05:48:41;;;;;;;13.65;8.75;;;0.20;99.90;;;;;;5031828;28;20143;-72
2021/04/04 05:51:16;;;;;;;14.05;7.85;;;0.20;99.90;;;;;;5027618;28;20068;-73
2021/04/04 05:54:00;;;;;;;22.92;8.63;;;0.10;99.90;;;;;;5032070;28;20549;-73
2021/04/04 05:56:38;;;;;;;13.38;7.75;;;0.20;99.90;;;;;;5030684;28;20034;-73
2021/04/04 05:59:11;;;;;;;15.98;8.07;;;0.20;99.90;;;;;;5031422;28;20025;-73
2021/04/04 06:01:55;;;;;;;16.60;8.38;;;0.10;99.90;;;;;;5031618;28;20101;-72
2021/04/04 06:04:54;;;;;;;14.65;8.52;;;0.10;99.90;;;;;;5030680;28;20032;-72
2021/04/04 06:07:32;;;;;;;11.93;7.78;;;0.10;99.90;;;;;;5031509;28;20021;-73
2021/04/04 06:10:11;;;;;;;13.88;7.63;;;0.20;99.90;;;;;;5030991;28;20025;-73
2021/04/04 06:12:44;;;;;;;11.95;7.93;;;0.20;99.90;;;;;;5031023;28;20029;-73
2021/04/04 06:15:41;;;;;;;15.80;7.88;;;0.30;99.90;;;;;;5031145;28;20431;-76
2021/04/04 06:18:16;;;;;;;12.68;7.15;;;0.40;99.90;;;;;;5036846;28;20032;-75
2021/04/04 06:20:56;;;;;;;12.98;7.53;;;0.40;99.90;;;;;;5041295;28;20107;-75
2021/04/04 06:23:40;;;;;;;15.43;7.97;;;0.40;99.90;;;;;;5040581;28;20096;-76
2021/04/04 06:26:36;;;;;;;13.55;8.18;;;0.50;99.90;;;;;;5039183;28;20462;-75
2021/04/04 06:29:47;;;;;;;13.00;7.90;;;0.30;99.90;;;;;;5038207;28;20036;-76
2021/04/04 06:32:20;;;;;;;13.98;7.80;;;0.60;99.90;;;;;;4977387;28;20066;-76
2021/04/04 06:34:54;;;;;;;14.13;7.40;;;0.60;99.90;;;;;;5028998;28;20021;-75
2021/04/04 06:37:23;;;;;;;17.95;8.20;;;0.80;99.90;;;;;;5038057;28;20017;-75
2021/04/04 06:40:00;;;;;;;10.70;7.63;;;0.80;99.90;;;;;;5034812;28;20086;-73
2021/04/04 06:43:03;;;;;;;15.18;7.80;;;0.90;99.90;;;;;;5036652;28;20068;-74
2021/04/04 06:45:47;;;;;;;12.18;7.85;;;1.10;99.90;;;;;;5038083;28;20484;-73
2021/04/04 06:48:58;;;;;;;10.63;7.15;;;1.20;99.90;;;;;;5043084;28;20450;-73
2021/04/04 06:51:49;;;;;;;15.15;6.82;;;1.30;99.90;;;;;;5043297;28;20051;-74
2021/04/04 06:54:31;;;;;;;19.35;7.93;;;1.40;99.90;;;;;;5036326;28;20051;-74
2021/04/04 06:57:28;;;;;;;15.25;6.75;;;1.50;99.90;;;;;;5036712;28;20029;-74
2021/04/04 06:59:57;;;;;;;12.68;6.82;;;1.60;99.90;;;;;;5036109;28;20044;-73
2021/04/04 07:02:27;;;;;;;17.05;7.13;;;1.70;99.90;;;;;;5041604;28;20046;-74
2021/04/04 07:05:20;;;;;;;12.27;7.47;;;1.80;99.90;;;;;;5027955;28;20112;-74
2021/04/04 07:08:08;;;;;;;13.80;7.47;;;1.90;99.90;;;;;;5032102;28;20041;-70
2021/04/04 07:10:45;;;;;;;10.52;7.28;;;2.70;99.90;;;;;;5053048;28;20024;-72
2021/04/04 07:13:39;;;;;;;12.25;7.03;;;3.20;99.90;;;;;;5051382;28;20394;-72
2021/04/04 07:16:27;;;;;;;8.90;6.55;;;3.80;99.90;;;;;;5051669;28;20155;-72
2021/04/04 07:19:31;;;;;;;10.23;6.57;;;4.50;99.90;;;;;;5053104;28;20032;-72
2021/04/04 07:22:16;;;;;;;12.05;6.32;;;5.30;99.90;;;;;;5067088;28;20032;-74
2021/04/04 07:25:09;;;;;;;15.50;6.22;;;4.70;99.90;;;;;;5052253;28;20017;-72
2021/04/04 07:28:31;;;;;;;11.68;5.90;;;4.10;99.90;;;;;;5053067;28;20025;-72
2021/04/04 07:31:02;;;;;;;8.00;5.15;;;3.80;99.90;;;;;;4990296;28;20045;-72
2021/04/04 07:33:38;;;;;;;7.78;5.25;;;3.50;99.90;;;;;;5005024;28;20055;-72
2021/04/04 07:36:13;;;;;;;11.45;5.80;;;3.40;99.90;;;;;;5052815;28;20135;-72
2021/04/04 07:38:49;;;;;;;12.68;5.72;;;3.40;99.90;;;;;;5053231;28;20039;-73
2021/04/04 07:41:28;;;;;;;8.80;5.95;;;3.50;99.90;;;;;;5052448;28;20025;-72
2021/04/04 07:44:32;;;;;;;10.20;6.70;;;3.70;99.90;;;;;;5052587;28;20471;-74
2021/04/04 07:47:12;;;;;;;12.50;5.65;;;3.90;99.90;;;;;;5051158;28;20041;-74
2021/04/04 07:49:42;;;;;;;11.45;6.18;;;3.90;99.90;;;;;;5058922;28;20025;-73
2021/04/04 07:52:23;;;;;;;12.13;6.18;;;4.10;99.90;;;;;;5067277;28;20090;-74
2021/04/04 07:55:03;;;;;;;8.90;5.35;;;4.20;99.90;;;;;;5051529;28;20036;-74
2021/04/04 07:57:50;;;;;;;9.27;5.68;;;4.50;99.90;;;;;;5066414;28;20119;-74
2021/04/04 08:00:18;;;;;;;7.90;5.57;;;4.80;99.90;;;;;;5067752;28;20029;-74
2021/04/04 08:02:49;;;;;;;7.00;4.97;;;5.10;99.90;;;;;;5054489;28;20123;-74
2021/04/04 08:05:21;;;;;;;10.32;5.30;;;5.40;99.90;;;;;;5052826;28;20020;-73
2021/04/04 08:08:02;;;;;;;7.75;5.15;;;5.50;99.90;;;;;;5051261;28;20699;-73
2021/04/04 08:10:36;;;;;;;7.85;4.80;;;5.90;99.90;;;;;;5047421;28;20025;-72
2021/04/04 08:13:38;;;;;;;13.02;5.93;;;6.10;99.90;;;;;;5050162;28;20029;-73
2021/04/04 08:16:31;;;;;;;11.68;5.68;;;6.50;99.90;;;;;;5052102;28;20052;-73
2021/04/04 08:18:57;;;;;;;8.38;5.78;;;6.30;99.90;;;;;;5058023;28;20028;-73
2021/04/04 08:21:32;;;;;;;6.63;4.90;;;6.80;99.90;;;;;;5071094;28;20028;-73
2021/04/04 08:24:06;;;;;;;9.07;5.15;;;7.20;99.90;;;;;;5071547;28;20090;-71
2021/04/04 08:26:59;;;;;;;8.82;4.70;;;7.50;99.90;;;;;;5071582;28;20028;-73
2021/04/04 08:29:43;;;;;;;8.75;5.38;;;8.20;99.90;;;;;;5072117;28;20493;-72
2021/04/04 08:32:21;;;;;;;8.55;5.25;;;8.60;99.90;;;;;;5044092;28;20102;-72
2021/04/04 08:34:57;;;;;;;8.57;4.88;;;8.60;99.90;;;;;;5032138;28;20441;-73
2021/04/04 08:37:25;;;;;;;7.35;4.85;;;8.30;99.90;;;;;;5032463;28;20021;-73
2021/04/04 08:40:03;;;;;;;8.20;4.97;;;8.20;99.90;;;;;;5031790;28;20029;-73
2021/04/04 08:42:29;;;;;;;13.50;5.25;;;8.80;99.90;;;;;;5031329;28;20100;-73
2021/04/04 08:45:24;;;;;;;8.15;4.45;;;11.20;97.50;;;;;;5031185;28;20139;-73
2021/04/04 08:47:51;;;;;;;8.32;5.00;;;11.30;94.80;;;;;;5030814;28;20029;-72
2021/04/04 08:50:19;;;;;;;8.43;5.05;;;11.80;92.90;;;;;;5031005;28;20029;-72
2021/04/04 08:52:59;;;;;;;6.80;4.57;;;11.10;92.40;;;;;;5028578;28;20488;-72
2021/04/04 08:55:29;;;;;;;10.55;5.32;;;12.20;92.70;;;;;;5031261;28;20034;-71
2021/04/04 08:58:01;;;;;;;6.13;4.63;;;12.60;90.40;;;;;;5029669;28;20036;-72
2021/04/04 09:00:29;;;;;;;8.57;4.72;;;12.90;85.90;;;;;;5029318;28;20040;-72
2021/04/04 09:03:03;;;;;;;6.75;4.55;;;12.50;84.60;;;;;;5030482;28;20107;-71
2021/04/04 09:05:30;;;;;;;7.13;3.72;;;12.80;83.80;;;;;;5031718;28;20026;-73
2021/04/04 09:08:01;;;;;;;5.10;4.22;;;13.00;77.70;;;;;;5032072;28;20017;-72
2021/04/04 09:10:31;;;;;;;8.68;4.20;;;13.40;77.10;;;;;;5031278;28;20032;-72
2021/04/04 09:12:58;;;;;;;7.95;3.75;;;13.60;75.20;;;;;;5030407;28;20033;-72
2021/04/04 09:15:25;;;;;;;5.00;3.35;;;14.10;76.70;;;;;;5030870;28;20029;-72
2021/04/04 09:17:53;;;;;;;6.63;3.70;;;14.60;69.80;;;;;;5031305;28;20388;-72
2021/04/04 09:20:31;;;;;;;4.72;3.30;;;13.40;72.40;;;;;;5066020;28;20028;-72
2021/04/04 09:22:59;;;;;;;6.07;3.45;;;14.00;73.30;;;;;;5061548;28;20079;-72
2021/04/04 09:25:25;;;;;;;3.70;3.05;;;15.10;66.80;;;;;;5048943;28;20744;-73
2021/04/04 09:27:57;;;;;;;4.70;3.08;;;14.80;64.10;;;;;;5050732;28;20104;-72
2021/04/04 09:30:23;;;;;;;5.17;2.57;;;14.00;65.30;;;;;;5050373;28;20021;-72
2021/04/04 09:32:56;;;;;;;5.93;3.25;;;14.40;62.30;;;;;;5049927;28;20433;-72
2021/04/04 09:35:22;;;;;;;9.38;3.80;;;14.70;62.00;;;;;;5049137;28;20033;-72
2021/04/04 09:37:52;;;;;;;7.22;3.08;;;15.10;61.40;;;;;;5050482;28;20487;-72
2021/04/04 09:40:20;;;;;;;7.28;3.65;;;15.10;59.60;;;;;;5049058;28;20029;-72
2021/04/04 09:42:46;;;;;;;4.28;2.78;;;15.10;60.70;;;;;;5049193;28;20025;-73
2021/04/04 09:45:22;;;;;;;6.03;2.83;;;15.20;58.20;;;;;;5050876;28;20040;-71
2021/04/04 09:47:50;;;;;;;6.00;3.50;;;14.90;58.60;;;;;;5050639;28;20125;-72
2021/04/04 09:50:28;;;;;;;6.95;3.20;;;14.70;59.80;;;;;;5050021;28;20028;-73
2021/04/04 09:52:54;;;;;;;6.95;2.97;;;15.30;59.90;;;;;;5049573;28;20043;-73
2021/04/04 09:55:24;;;;;;;6.65;3.67;;;14.60;59.00;;;;;;5049469;28;20373;-72
2021/04/04 09:57:54;;;;;;;6.05;2.83;;;15.20;62.20;;;;;;5045607;28;20032;-74
2021/04/04 10:00:40;;;;;;;5.35;2.83;;;15.80;58.60;;;;;;5049065;28;20033;-73
2021/04/04 10:03:13;;;;;;;4.28;2.90;;;16.00;57.60;;;;;;5049205;28;20071;-76
2021/04/04 10:05:47;;;;;;;4.55;2.80;;;16.50;56.70;;;;;;5050321;28;20467;-77
2021/04/04 10:08:18;;;;;;;4.93;2.85;;;16.60;54.40;;;;;;5049644;28;20057;-74
2021/04/04 10:10:46;;;;;;;4.77;2.43;;;16.90;54.80;;;;;;5049802;28;20028;-76
2021/04/04 10:13:13;;;;;;;6.78;2.78;;;17.40;51.10;;;;;;5036685;28;20476;-75
2021/04/04 10:15:47;;;;;;;3.10;2.38;;;15.90;52.60;;;;;;5034656;28;20037;-74
2021/04/04 10:18:14;;;;;;;3.45;2.10;;;16.10;53.40;;;;;;5031454;28;20056;-74
2021/04/04 10:20:46;;;;;;;4.20;2.28;;;16.00;52.90;;;;;;5069198;28;20020;-73
2021/04/04 10:23:13;;;;;;;4.47;2.30;;;16.30;52.10;;;;;;5068917;28;20074;-71
2021/04/04 10:26:08;;;;;;;5.20;2.83;;;16.00;51.80;;;;;;5067692;28;20528;-72
2021/04/04 10:28:46;;;;;;;5.68;2.22;;;16.20;52.60;;;;;;5069492;28;20659;-73
2021/04/04 10:31:12;;;;;;;3.88;2.33;;;16.40;52.50;;;;;;5055904;28;20037;-71
2021/04/04 10:33:38;;;;;;;7.88;2.65;;;15.90;52.80;;;;;;5029279;28;20435;-71
2021/04/04 10:36:20;;;;;;;4.78;2.60;;;17.30;51.80;;;;;;5035142;28;20040;-71
2021/04/04 10:38:46;;;;;;;3.13;2.35;;;17.30;49.70;;;;;;5038346;28;20028;-74
2021/04/04 10:41:24;;;;;;;4.38;2.70;;;17.70;51.90;;;;;;5033459;28;20045;-72
2021/04/04 10:43:50;;;;;;;4.07;2.85;;;18.50;49.80;;;;;;5029352;28;20029;-72
2021/04/04 10:46:17;;;;;;;7.40;2.65;;;18.20;52.40;;;;;;5039792;28;20029;-72
2021/04/04 10:48:48;;;;;;;3.85;2.10;;;19.10;51.70;;;;;;5036213;28;20436;-73
2021/04/04 10:51:16;;;;;;;4.50;2.38;;;19.20;47.40;;;;;;5037820;28;20036;-71
2021/04/04 10:53:42;;;;;;;3.20;2.42;;;19.80;46.20;;;;;;5045240;28;20103;-70
2021/04/04 10:56:10;;;;;;;2.75;2.22;;;19.30;46.40;;;;;;5048697;28;20037;-71
2021/04/04 10:58:36;;;;;;;4.22;2.45;;;18.60;45.80;;;;;;5036235;28;20030;-76
2021/04/04 11:01:04;;;;;;;4.43;2.40;;;18.10;48.40;;;;;;5041881;28;20017;-75
2021/04/04 11:03:30;;;;;;;3.85;2.10;;;18.90;47.70;;;;;;5040440;28;20092;-72
2021/04/04 11:05:58;;;;;;;10.02;2.42;;;20.10;45.70;;;;;;5037501;28;20029;-72
2021/04/04 11:08:24;;;;;;;4.32;3.55;;;19.90;44.50;;;;;;5043246;28;20017;-73
2021/04/04 11:10:51;;;;;;;3.63;2.40;;;20.90;44.40;;;;;;5040093;28;20642;-74
2021/04/04 11:13:19;;;;;;;3.55;2.05;;;22.20;42.50;;;;;;5040022;28;20029;-75
2021/04/04 11:15:56;;;;;;;2.83;2.20;;;21.70;43.60;;;;;;5038086;28;20486;-73
2021/04/04 11:18:33;;;;;;;2.70;2.20;;;20.60;42.70;;;;;;5039956;28;20022;-76
2021/04/04 11:21:07;;;;;;;5.18;2.45;;;21.70;43.40;;;;;;5034413;28;20017;-74
2021/04/04 11:23:36;;;;;;;3.35;2.05;;;21.60;42.80;;;;;;5038698;28;20033;-76
2021/04/04 11:26:22;;;;;;;5.30;2.17;;;21.80;42.20;;;;;;5042386;28;20025;-76
2021/04/04 11:29:06;;;;;;;2.78;2.28;;;20.90;42.10;;;;;;5039944;28;20013;-74
2021/04/04 11:31:32;;;;;;;4.03;2.10;;;21.00;42.30;;;;;;5042929;28;20040;-76
2021/04/04 11:34:28;;;;;;;4.22;2.20;;;20.00;42.70;;;;;;5033482;28;20026;-75
2021/04/04 11:36:54;;;;;;;4.13;2.28;;;21.20;42.80;;;;;;5032558;28;20124;-75
2021/04/04 11:39:21;;;;;;;2.58;2.13;;;19.60;41.70;;;;;;5034380;28;20225;-75
2021/04/04 11:41:56;;;;;;;7.30;2.20;;;19.90;43.60;;;;;;5034958;28;20025;-76
2021/04/04 11:44:28;;;;;;;3.30;1.95;;;20.30;44.80;;;;;;5041794;28;20025;-74
2021/04/04 11:47:01;;;;;;;2.25;1.70;;;20.40;41.90;;;;;;5041853;28;20032;-75
2021/04/04 11:49:30;;;;;;;5.38;2.30;;;20.50;42.00;;;;;;5040360;28;20055;-77
2021/04/04 11:51:57;;;;;;;2.83;2.20;;;21.30;42.00;;;;;;5037175;28;20142;-74
2021/04/04 11:54:46;;;;;;;5.53;2.38;;;21.70;40.90;;;;;;5041123;28;20025;-74
2021/04/04 11:57:41;;;;;;;3.10;2.20;;;20.30;40.20;;;;;;5030987;28;20037;-75
2021/04/04 12:00:07;;;;;;;3.83;1.95;;;19.10;41.60;;;;;;5036993;28;20036;-75
2021/04/04 12:02:34;;;;;;;3.97;2.60;;;19.30;44.40;;;;;;5040317;28;20021;-76
2021/04/04 12:05:08;;;;;;;3.30;2.00;;;19.50;43.40;;;;;;5047827;28;20045;-74
2021/04/04 12:07:51;;;;;;;4.38;2.20;;;19.90;43.40;;;;;;5047470;28;20368;-73
2021/04/04 12:10:20;;;;;;;4.70;2.00;;;20.60;41.20;;;;;;5090563;23;20045;-70
2021/04/04 12:12:46;;;;;;;4.13;2.30;;;20.70;42.80;;;;;;5045167;28;20017;-72
2021/04/04 12:15:14;;;;;;;2.50;2.20;;;20.40;40.40;;;;;;5054108;28;20028;-72
2021/04/04 12:17:46;;;;;;;3.35;2.05;;;20.30;41.10;;;;;;5053938;28;20471;-74
2021/04/04 12:20:12;;;;;;;5.47;2.33;;;19.80;40.80;;;;;;5066723;28;20028;-73
2021/04/04 12:22:43;;;;;;;3.03;2.15;;;19.60;42.10;;;;;;5055640;28;20029;-74
2021/04/04 12:25:16;;;;;;;4.15;2.40;;;19.60;43.60;;;;;;5055446;28;20029;-74
2021/04/04 12:27:44;;;;;;;6.40;2.40;;;19.40;41.50;;;;;;5061890;28;20021;-74
2021/04/04 12:30:37;;;;;;;3.85;2.47;;;18.80;45.10;;;;;;5072102;28;20501;-74
2021/04/04 12:33:07;;;;;;;5.53;2.30;;;19.20;44.00;;;;;;5069986;28;20016;-74
2021/04/04 12:35:35;;;;;;;4.60;2.53;;;19.50;42.10;;;;;;5071997;28;20025;-73
2021/04/04 12:38:01;;;;;;;4.78;2.00;;;19.00;42.40;;;;;;5070689;28;20028;-75
2021/04/04 12:40:28;;;;;;;3.63;2.10;;;18.60;43.70;;;;;;5055103;28;20502;-75
2021/04/04 12:43:00;;;;;;;2.55;2.03;;;18.70;45.20;;;;;;5069051;28;20029;-74
2021/04/04 12:45:30;;;;;;;;;;;19.00;42.80;;;;;;5055261;28;20025;-74
2021/04/04 12:47:56;;;;;;;3.25;2.17;;;18.70;43.10;;;;;;5054101;28;19967;-74
2021/04/04 12:50:22;;;;;;;5.32;2.20;;;19.00;43.70;;;;;;5053816;28;20464;-74
2021/04/04 12:52:50;;;;;;;4.47;2.45;;;19.90;44.00;;;;;;5049799;28;20741;-74
2021/04/04 12:55:18;;;;;;;3.17;2.08;;;20.40;42.40;;;;;;5060752;28;20025;-74
2021/04/04 12:57:45;;;;;;;3.53;2.40;;;20.50;40.50;;;;;;5073928;28;20028;-76
2021/04/04 13:00:21;;;;;;;3.75;2.40;;;20.10;40.70;;;;;;5057761;28;20394;-76
2021/04/04 13:03:05;;;;;;;4.97;2.45;;;20.00;40.60;;;;;;5033810;28;20032;-74
2021/04/04 13:05:35;;;;;;;3.22;2.35;;;19.90;41.40;;;;;;5047901;28;20022;-75
2021/04/04 13:08:41;;;;;;;4.20;2.38;;;20.00;41.00;;;;;;5032738;28;20056;-74
2021/04/04 13:11:10;;;;;;;3.78;2.42;;;20.00;40.00;;;;;;5023431;28;20063;-74
2021/04/04 13:13:37;;;;;;;3.70;2.30;;;19.20;41.00;;;;;;5040662;28;20352;-74